Time;durP1;ratioP1;P1;durP2;ratioP2;P2;SDS_P1;SDS_P2;PMS_P1;PMS_P2;Temp;Humidity;BMP_temperature;BMP_pressure;BME280_temperature;BME280_humidity;BME280_pressure;Samples;Min_cycle;Max_cycle;Signal;HPM_P1;HPM_P2
2022/06/05 00:01:11;;;;;;;36.53;23.90;;;;;;;16.35;100.00;100780.94;5015068;28;20022;-80
2022/06/05 00:03:59;;;;;;;35.10;23.83;;;;;;;16.35;100.00;100775.19;5015015;28;20088;-79
2022/06/05 00:06:37;;;;;;;33.35;21.83;;;;;;;16.35;100.00;100771.53;5015459;28;20072;-80
2022/06/05 00:09:13;;;;;;;34.75;22.25;;;;;;;16.34;100.00;100767.88;4981464;28;20462;-79
2022/06/05 00:12:11;;;;;;;31.50;21.15;;;;;;;16.33;100.00;100774.16;4981600;28;20050;-79
2022/06/05 00:14:45;;;;;;;27.35;19.40;;;;;;;16.33;99.99;100759.75;4994794;28;20037;-78
2022/06/05 00:17:17;;;;;;;24.40;18.08;;;;;;;16.31;99.08;100762.34;5015108;28;20028;-79
2022/06/05 00:19:44;;;;;;;;;;;;;;;16.30;98.42;100764.44;4997806;28;20026;-79
2022/06/05 00:22:10;;;;;;;24.80;18.92;;;;;;;16.25;98.09;100758.63;5013500;28;19913;-79
2022/06/05 00:24:37;;;;;;;24.13;16.67;;;;;;;16.30;97.70;100770.19;4997229;28;20037;-78
2022/06/05 00:27:32;;;;;;;20.63;15.93;;;;;;;16.28;97.25;100764.13;5015126;28;20037;-79
2022/06/05 00:30:13;;;;;;;20.50;16.23;;;;;;;16.25;96.97;100768.03;4997237;28;20088;-80
2022/06/05 00:32:56;;;;;;;21.35;14.43;;;;;;;16.21;96.21;100764.59;4980892;28;20029;-79
2022/06/05 00:35:22;;;;;;;19.33;14.70;;;;;;;16.19;96.24;100761.44;5014334;28;20399;-79
2022/06/05 00:38:08;;;;;;;18.27;14.27;;;;;;;16.19;96.01;100760.66;5013293;28;20501;-79
2022/06/05 00:41:04;;;;;;;16.80;13.57;;;;;;;16.15;95.76;100755.13;4997096;28;20097;-80
2022/06/05 00:43:33;;;;;;;18.15;12.23;;;;;;;16.07;95.34;100748.25;4997054;28;20104;-79
2022/06/05 00:46:01;;;;;;;17.83;13.10;;;;;;;16.07;95.35;100751.13;4997479;28;20106;-79
2022/06/05 00:48:27;;;;;;;14.35;11.82;;;;;;;16.06;95.59;100758.19;4980717;28;20026;-79
2022/06/05 00:50:52;;;;;;;16.92;12.80;;;;;;;15.98;95.36;100762.81;4996460;28;20394;-79
2022/06/05 00:53:19;;;;;;;14.20;11.95;;;;;;;15.98;95.49;100757.81;5014148;28;20489;-80
2022/06/05 00:55:48;;;;;;;16.60;12.77;;;;;;;15.95;95.14;100741.59;4996505;28;20021;-79
2022/06/05 00:58:16;;;;;;;13.55;11.48;;;;;;;15.92;95.15;100745.50;4980815;28;20044;-80
2022/06/05 01:00:46;;;;;;;13.18;11.25;;;;;;;15.90;94.68;100756.69;4964370;28;20121;-80
2022/06/05 01:03:13;;;;;;;14.82;11.10;;;;;;;15.88;94.59;100756.44;4997007;28;20121;-79
2022/06/05 01:05:53;;;;;;;14.10;10.75;;;;;;;15.86;94.58;100752.47;4996382;28;20033;-79
2022/06/05 01:08:19;;;;;;;11.85;10.50;;;;;;;15.85;94.45;100748.00;5012803;28;20025;-79
2022/06/05 01:11:12;;;;;;;12.65;10.00;;;;;;;15.83;94.63;100751.41;4980070;28;20076;-80
2022/06/05 01:14:02;;;;;;;13.88;10.35;;;;;;;15.79;94.42;100747.16;4996306;28;20116;-78
2022/06/05 01:16:46;;;;;;;15.98;11.07;;;;;;;15.75;94.50;100756.00;5013731;28;20030;-79
2022/06/05 01:19:30;;;;;;;11.93;9.90;;;;;;;15.71;94.50;100755.44;5014191;28;20048;-79
2022/06/05 01:22:18;;;;;;;14.40;10.98;;;;;;;15.66;95.36;100758.22;5013867;28;20033;-79
2022/06/05 01:25:14;;;;;;;14.45;10.73;;;;;;;15.64;95.78;100758.72;5013802;28;20030;-79
2022/06/05 01:27:46;;;;;;;15.35;10.85;;;;;;;15.61;95.61;100753.19;4996331;28;20030;-80
2022/06/05 01:30:15;;;;;;;15.18;11.15;;;;;;;15.57;95.77;100756.31;4980753;28;20037;-80
2022/06/05 01:32:59;;;;;;;17.30;13.55;;;;;;;15.54;96.09;100760.94;4964235;28;20088;-79
2022/06/05 01:35:59;;;;;;;18.15;12.15;;;;;;;15.51;95.85;100755.44;4976558;28;20042;-79
2022/06/05 01:38:36;;;;;;;15.77;11.85;;;;;;;15.49;95.99;100758.00;4960141;28;20102;-79
2022/06/05 01:41:16;;;;;;;18.67;13.38;;;;;;;15.46;96.39;100751.16;4973725;28;20023;-80
2022/06/05 01:43:52;;;;;;;13.93;11.45;;;;;;;15.42;96.28;100753.47;4958700;28;20085;-80
2022/06/05 01:46:34;;;;;;;16.33;12.05;;;;;;;15.39;96.53;100751.59;4973371;28;20115;-80
2022/06/05 01:49:22;;;;;;;15.18;11.93;;;;;;;15.34;96.44;100754.41;4973522;28;20035;-78
2022/06/05 01:51:53;;;;;;;17.80;13.60;;;;;;;15.26;96.83;100764.72;4957093;28;20031;-80
2022/06/05 01:54:24;;;;;;;18.08;13.60;;;;;;;15.17;96.81;100751.28;4976302;28;20086;-79
2022/06/05 01:56:57;;;;;;;16.92;12.80;;;;;;;15.06;97.27;100742.53;4976757;28;20038;-78
2022/06/05 01:59:46;;;;;;;16.52;12.80;;;;;;;15.13;97.08;100759.31;4943810;28;20030;-79
2022/06/05 02:02:17;;;;;;;19.23;13.73;;;;;;;15.08;97.27;100771.50;4959573;28;20034;-78
2022/06/05 02:04:56;;;;;;;17.80;12.87;;;;;;;15.02;97.80;100770.63;4973587;28;20502;-80
2022/06/05 02:07:29;;;;;;;17.20;12.65;;;;;;;14.97;97.97;100762.72;4957306;28;20695;-79
2022/06/05 02:10:01;;;;;;;16.70;12.18;;;;;;;14.93;98.15;100759.28;4975112;28;20027;-79
2022/06/05 02:12:28;;;;;;;19.52;14.32;;;;;;;14.89;98.60;100759.50;4957672;28;20101;-79
2022/06/05 02:14:55;;;;;;;17.10;13.30;;;;;;;14.86;98.20;100754.75;4974321;28;20055;-80
2022/06/05 02:17:22;;;;;;;16.13;11.95;;;;;;;14.78;97.91;100744.19;4973470;28;20143;-79
2022/06/05 02:19:50;;;;;;;18.13;13.00;;;;;;;14.79;98.52;100758.03;4973409;28;20027;-78
2022/06/05 02:22:30;;;;;;;17.73;12.80;;;;;;;14.77;98.46;100760.59;4974700;28;20035;-79
2022/06/05 02:24:57;;;;;;;19.40;13.70;;;;;;;14.76;98.68;100750.41;4976715;28;20037;-79
2022/06/05 02:27:24;;;;;;;20.88;15.10;;;;;;;14.70;98.79;100749.56;4944674;28;20029;-80
2022/06/05 02:29:52;;;;;;;20.73;14.75;;;;;;;14.69;98.54;100748.75;4978221;28;20077;-79
2022/06/05 02:33:09;;;;;;;19.63;14.10;;;;;;;14.68;98.92;100755.78;4976927;28;20562;-79
2022/06/05 02:36:12;;;;;;;20.00;13.52;;;;;;;14.66;99.25;100766.16;4915320;29;20135;-79
2022/06/05 02:39:00;;;;;;;20.45;14.25;;;;;;;14.63;98.75;100770.81;4997675;28;20634;-79
2022/06/05 02:42:02;;;;;;;17.60;12.85;;;;;;;14.55;99.61;100763.88;4996360;28;20076;-80
2022/06/05 02:44:52;;;;;;;18.13;14.32;;;;;;;14.58;99.18;100773.56;5028650;28;20084;-79
2022/06/05 02:47:51;;;;;;;18.20;13.02;;;;;;;14.53;99.71;100774.28;4997537;28;20105;-79
2022/06/05 02:50:44;;;;;;;22.13;13.93;;;;;;;14.50;99.78;100770.34;4996985;28;20041;-78
2022/06/05 02:53:12;;;;;;;19.08;13.43;;;;;;;14.49;99.74;100765.09;4979545;28;20030;-79
2022/06/05 02:55:38;;;;;;;21.33;14.23;;;;;;;14.49;99.62;100760.16;4995694;28;20076;-79
2022/06/05 02:58:13;;;;;;;20.95;14.13;;;;;;;14.54;99.38;100768.06;4997128;28;20045;-79
2022/06/05 03:00:40;;;;;;;19.63;14.45;;;;;;;14.57;100.00;100763.38;4979456;28;20038;-79
2022/06/05 03:05:51;;;;;;;21.88;15.63;;;;;;;14.60;99.56;100757.44;4982069;28;20066;-79
2022/06/05 03:08:20;;;;;;;21.40;14.80;;;;;;;14.67;99.24;100765.66;4978962;28;20137;-79
2022/06/05 03:10:45;;;;;;;21.00;16.33;;;;;;;14.60;99.38;100753.81;4995637;28;20092;-78
2022/06/05 03:13:12;;;;;;;23.55;15.90;;;;;;;14.77;99.34;100768.41;4995555;28;20471;-79
2022/06/05 03:15:41;;;;;;;25.95;16.50;;;;;;;14.78;99.37;100770.78;4995894;28;20113;-78
2022/06/05 03:18:07;;;;;;;20.23;15.35;;;;;;;14.85;99.29;100781.06;4979675;28;20116;-78
2022/06/05 03:20:34;;;;;;;20.55;15.57;;;;;;;14.88;98.43;100785.81;4979253;28;20030;-78
2022/06/05 03:23:01;;;;;;;23.38;16.83;;;;;;;14.94;98.83;100775.22;4995842;28;20038;-77
2022/06/05 03:25:27;;;;;;;23.88;16.50;;;;;;;15.04;98.02;100788.16;4978839;28;20026;-78
2022/06/05 03:28:01;;;;;;;19.95;14.77;;;;;;;15.11;98.31;100796.31;5027953;28;20052;-78
2022/06/05 03:30:26;;;;;;;21.85;15.98;;;;;;;15.14;97.75;100804.72;4996625;28;20026;-78
2022/06/05 03:32:51;;;;;;;21.98;15.50;;;;;;;15.21;97.27;100799.84;4978797;28;20085;-77
2022/06/05 03:35:18;;;;;;;21.33;15.13;;;;;;;15.27;97.21;100801.53;5009818;28;20061;-79
2022/06/05 03:37:45;;;;;;;18.80;14.65;;;;;;;15.32;96.63;100806.56;5014571;28;20387;-79
2022/06/05 03:40:16;;;;;;;21.88;15.75;;;;;;;15.40;96.79;100815.53;5016426;28;20021;-79
2022/06/05 03:42:43;;;;;;;24.00;16.08;;;;;;;15.46;96.19;100811.47;4982039;28;20033;-79
2022/06/05 03:45:17;;;;;;;19.20;14.57;;;;;;;15.50;96.08;100808.38;5015731;28;20101;-79
2022/06/05 03:47:48;;;;;;;17.85;13.82;;;;;;;15.61;95.54;100822.13;5015763;28;20022;-79
2022/06/05 03:50:16;;;;;;;19.17;13.82;;;;;;;15.69;94.87;100823.28;5015504;28;20549;-79
2022/06/05 03:52:42;;;;;;;17.20;13.95;;;;;;;15.75;94.31;100813.44;4998184;28;20026;-79
2022/06/05 03:55:10;;;;;;;17.95;13.88;;;;;;;15.82;94.38;100813.03;5014180;28;20037;-79
2022/06/05 03:57:35;;;;;;;17.35;13.65;;;;;;;15.88;94.43;100813.88;4998052;28;20097;-80
2022/06/05 04:00:00;;;;;;;18.55;14.00;;;;;;;15.97;93.82;100821.56;4998135;28;20372;-79
2022/06/05 04:02:27;;;;;;;22.63;13.15;;;;;;;16.05;93.75;100822.69;5015430;28;20108;-80
2022/06/05 04:04:54;;;;;;;16.23;13.45;;;;;;;16.16;93.37;100824.91;5015150;28;20014;-79
2022/06/05 04:07:20;;;;;;;18.80;13.32;;;;;;;16.25;92.88;100810.38;4997560;28;20574;-79
2022/06/05 04:09:47;;;;;;;17.95;13.77;;;;;;;16.32;92.30;100801.31;5015609;28;20034;-78
2022/06/05 04:12:13;;;;;;;21.17;15.52;;;;;;;16.33;92.03;100795.03;4997569;28;20021;-80
2022/06/05 04:14:41;;;;;;;16.67;13.43;;;;;;;16.53;91.70;100817.19;5015060;28;20022;-79
2022/06/05 04:17:07;;;;;;;18.95;13.23;;;;;;;16.63;91.49;100814.94;5015041;28;20063;-79
2022/06/05 04:19:32;;;;;;;18.00;13.98;;;;;;;16.73;90.74;100825.78;5013808;28;20386;-80
2022/06/05 04:21:57;;;;;;;19.42;14.27;;;;;;;16.81;90.27;100824.03;5014919;28;20559;-79
2022/06/05 04:24:23;;;;;;;16.50;13.50;;;;;;;16.89;90.05;100827.22;4997543;28;20026;-81
2022/06/05 04:26:49;;;;;;;17.50;14.10;;;;;;;16.99;89.92;100828.63;4997723;28;20017;-79
2022/06/05 04:29:15;;;;;;;18.92;13.13;;;;;;;17.12;89.17;100820.34;4997400;28;20079;-79
2022/06/05 04:31:45;;;;;;;20.75;13.52;;;;;;;17.21;88.95;100823.03;4980934;28;20390;-79
2022/06/05 04:34:15;;;;;;;16.55;13.00;;;;;;;17.34;88.81;100830.44;5014305;28;20050;-79
2022/06/05 04:36:41;;;;;;;18.25;13.75;;;;;;;17.43;88.03;100833.91;4997349;28;20404;-80
2022/06/05 04:39:08;;;;;;;17.95;13.48;;;;;;;17.53;87.93;100828.72;4997245;28;20467;-80
2022/06/05 04:41:34;;;;;;;19.75;14.73;;;;;;;17.64;87.75;100844.03;4997022;28;20041;-79
2022/06/05 04:44:05;;;;;;;17.58;13.20;;;;;;;17.71;87.33;100827.56;5014513;28;20033;-79
2022/06/05 04:46:33;;;;;;;18.30;14.13;;;;;;;17.83;87.02;100823.41;4980128;28;20332;-78
2022/06/05 04:48:59;;;;;;;16.98;13.60;;;;;;;17.96;86.76;100824.50;4997110;28;20076;-79
2022/06/05 04:51:26;;;;;;;17.88;13.27;;;;;;;18.06;86.26;100833.72;4979988;28;20042;-80
2022/06/05 04:53:55;;;;;;;15.07;12.60;;;;;;;18.15;85.44;100824.06;4964724;28;20037;-79
2022/06/05 04:56:32;;;;;;;14.13;12.63;;;;;;;18.28;84.58;100830.91;4964588;28;20125;-79
2022/06/05 04:58:57;;;;;;;14.52;12.27;;;;;;;18.38;83.72;100820.72;4980793;28;20041;-80
2022/06/05 05:01:29;;;;;;;14.80;13.18;;;;;;;18.51;83.55;100825.97;5014240;28;20034;-80
2022/06/05 05:03:58;;;;;;;15.38;13.13;;;;;;;18.65;83.32;100829.97;4981398;28;20029;-80
2022/06/05 05:06:26;;;;;;;16.73;12.65;;;;;;;18.78;82.83;100830.25;4980893;28;20487;-80
2022/06/05 05:08:52;;;;;;;13.98;11.30;;;;;;;18.85;82.04;100818.16;4980769;28;20044;-79
2022/06/05 05:11:18;;;;;;;18.70;12.60;;;;;;;19.00;81.98;100824.47;5014336;28;20037;-79
2022/06/05 05:13:45;;;;;;;13.30;10.98;;;;;;;19.07;80.84;100809.50;4996697;28;20383;-80
2022/06/05 05:16:11;;;;;;;13.60;10.93;;;;;;;19.15;80.06;100822.09;4980063;28;20026;-80
2022/06/05 05:18:38;;;;;;;12.60;10.27;;;;;;;19.23;79.79;100813.69;4996447;28;20073;-80
2022/06/05 05:21:15;;;;;;;12.07;10.55;;;;;;;19.29;78.51;100803.69;5013018;28;20503;-81
2022/06/05 05:23:43;;;;;;;11.82;10.63;;;;;;;19.45;78.66;100819.44;4996656;28;20062;-81
2022/06/05 05:26:10;;;;;;;11.48;9.88;;;;;;;19.53;77.18;100819.72;4964437;28;20033;-79
2022/06/05 05:28:39;;;;;;;11.88;10.38;;;;;;;19.61;77.53;100814.94;4996718;28;20057;-81
2022/06/05 05:31:13;;;;;;;13.02;10.50;;;;;;;19.73;75.51;100822.28;4964279;28;20034;-82
2022/06/05 05:33:40;;;;;;;10.70;9.57;;;;;;;19.75;75.88;100811.75;4980289;28;20025;-82
2022/06/05 05:36:17;;;;;;;11.85;9.63;;;;;;;19.81;74.72;100803.84;4979981;28;20072;-81
2022/06/05 05:44:17;;;;;;;9.48;7.50;;;;;;;20.15;72.26;100803.69;5014165;28;20033;-86
2022/06/05 05:46:43;;;;;;;9.20;7.43;;;;;;;20.25;71.77;100811.53;4996429;28;20083;-83
2022/06/05 05:49:10;;;;;;;8.45;6.80;;;;;;;20.38;70.93;100793.56;4996160;28;20478;-83
2022/06/05 05:51:38;;;;;;;7.55;5.80;;;;;;;21.01;69.38;100807.06;4996165;28;20030;-81
2022/06/05 05:54:04;;;;;;;6.50;5.43;;;;;;;22.36;66.01;100793.38;4982329;28;20558;-79
2022/06/05 05:56:38;;;;;;;5.68;5.18;;;;;;;24.05;57.29;100767.34;4995991;28;20022;-78
2022/06/05 05:59:05;;;;;;;6.05;5.45;;;;;;;25.74;53.02;100793.34;5017810;28;20080;-78
2022/06/05 06:01:30;;;;;;;6.65;5.45;;;;;;;27.32;46.65;100776.09;5018503;28;20029;-77
2022/06/05 06:03:56;;;;;;;5.47;4.97;;;;;;;28.86;44.04;100773.63;5017771;28;20022;-77
2022/06/05 06:06:30;;;;;;;5.15;4.75;;;;;;;29.97;36.28;100776.72;4967631;28;20025;-77
2022/06/05 06:08:58;;;;;;;5.78;4.65;;;;;;;30.79;35.84;100785.84;5000082;28;20125;-77
2022/06/05 06:11:32;;;;;;;4.65;4.25;;;;;;;31.62;31.96;100771.97;5000158;28;20030;-75
2022/06/05 06:13:58;;;;;;;4.70;4.13;;;;;;;32.52;33.46;100764.78;5017359;28;20038;-77
2022/06/05 06:16:23;;;;;;;4.60;4.20;;;;;;;33.21;31.57;100772.84;5015881;28;20033;-76
2022/06/05 06:18:49;;;;;;;4.78;4.38;;;;;;;33.85;28.82;100764.09;4999837;28;20061;-76
2022/06/05 06:21:15;;;;;;;4.97;4.00;;;;;;;34.53;28.96;100770.94;5017794;28;20157;-75
2022/06/05 06:23:42;;;;;;;3.90;3.55;;;;;;;35.25;28.37;100771.22;5017272;28;20462;-77
2022/06/05 06:26:09;;;;;;;4.10;3.70;;;;;;;35.79;26.76;100762.78;5017169;28;20026;-77
2022/06/05 06:28:36;;;;;;;3.55;3.25;;;;;;;36.27;26.25;100770.88;4999555;28;20084;-77
2022/06/05 06:31:13;;;;;;;3.92;3.63;;;;;;;36.87;23.17;100766.97;4999377;28;20478;-76
2022/06/05 06:33:45;;;;;;;3.60;3.30;;;;;;;37.39;23.91;100763.22;4999693;28;20541;-76
2022/06/05 06:36:16;;;;;;;3.85;3.55;;;;;;;37.96;24.33;100760.28;4999232;28;20068;-76
2022/06/05 06:38:41;;;;;;;3.75;3.45;;;;;;;38.57;21.75;100763.44;5017409;28;20021;-80
2022/06/05 06:41:12;;;;;;;4.45;4.05;;;;;;;39.18;22.15;100764.16;4983467;28;20141;-81
2022/06/05 06:43:38;;;;;;;5.60;3.70;;;;;;;39.67;21.69;100764.22;4996679;28;20125;-75
2022/06/05 06:46:05;;;;;;;4.95;3.42;;;;;;;40.09;20.81;100765.38;4999651;28;20087;-77
2022/06/05 06:48:31;;;;;;;3.78;3.47;;;;;;;40.13;20.07;100771.50;4983127;28;20034;-77
2022/06/05 06:50:58;;;;;;;3.72;2.97;;;;;;;40.71;20.20;100767.28;4999146;28;20037;-77
2022/06/05 06:53:25;;;;;;;3.50;3.20;;;;;;;39.90;18.64;100760.81;4982971;28;20160;-76
2022/06/05 06:55:51;;;;;;;3.22;3.03;;;;;;;38.57;18.87;100755.28;4966402;28;20037;-75
2022/06/05 06:58:17;;;;;;;3.97;3.58;;;;;;;38.52;19.57;100761.69;5016701;28;20025;-77
2022/06/05 07:00:43;;;;;;;3.20;3.00;;;;;;;38.93;21.27;100758.53;4999064;28;20030;-76
2022/06/05 07:03:11;;;;;;;3.10;2.80;;;;;;;39.92;19.97;100763.09;4982597;28;20030;-76
2022/06/05 07:05:37;;;;;;;3.35;3.05;;;;;;;39.76;19.18;100747.50;4966493;28;20475;-77
2022/06/05 07:08:04;;;;;;;3.47;3.17;;;;;;;40.40;19.27;100750.31;4998995;28;20344;-75
2022/06/05 07:10:30;;;;;;;3.75;3.33;;;;;;;40.69;19.09;100751.50;5015313;28;20021;-76
2022/06/05 07:12:55;;;;;;;2.63;2.42;;;;;;;41.18;18.39;100754.97;4998842;28;20022;-76
2022/06/05 07:15:22;;;;;;;3.72;3.13;;;;;;;41.24;17.00;100751.44;4998614;28;20105;-76
2022/06/05 07:17:48;;;;;;;2.92;2.72;;;;;;;41.45;17.84;100753.03;4998627;28;20026;-76
2022/06/05 07:20:16;;;;;;;3.72;3.25;;;;;;;41.37;16.94;100753.44;4999058;28;20029;-77
2022/06/05 07:22:43;;;;;;;2.95;2.72;;;;;;;41.47;17.27;100756.06;4998822;28;20029;-76
2022/06/05 07:25:10;;;;;;;2.92;2.72;;;;;;;40.79;17.56;100740.72;4998350;28;20394;-76
2022/06/05 07:27:36;;;;;;;3.33;3.03;;;;;;;41.02;17.86;100732.59;5015969;28;20030;-77
2022/06/05 07:30:04;;;;;;;4.60;4.15;;;;;;;41.34;17.12;100730.91;5016017;28;20022;-76
2022/06/05 07:32:30;;;;;;;2.92;2.70;;;;;;;41.08;17.92;100735.88;5003455;28;20030;-76
2022/06/05 07:34:57;;;;;;;3.10;2.80;;;;;;;40.70;18.02;100735.09;4995944;28;20050;-75
2022/06/05 07:37:23;;;;;;;2.70;2.50;;;;;;;41.37;17.98;100735.47;4996109;28;20022;-76
2022/06/05 07:39:50;;;;;;;4.63;2.75;;;;;;;40.66;17.58;100732.69;4996021;28;20067;-77
2022/06/05 07:42:16;;;;;;;3.05;2.80;;;;;;;40.45;18.97;100730.31;4995725;28;20030;-75
2022/06/05 07:44:41;;;;;;;3.05;2.85;;;;;;;41.24;17.80;100713.34;4978586;28;20464;-74
2022/06/05 07:47:08;;;;;;;3.15;2.95;;;;;;;41.28;16.66;100721.69;4995992;28;20058;-74
2022/06/05 07:49:45;;;;;;;3.55;2.83;;;;;;;41.91;16.98;100718.03;4978687;28;20058;-77
2022/06/05 07:54:56;;;;;;;3.40;3.03;;;;;;;42.36;16.97;100715.09;4981375;28;20104;-76
2022/06/05 07:57:23;;;;;;;3.22;3.03;;;;;;;42.32;16.85;100711.97;4980872;28;20061;-74
2022/06/05 07:59:50;;;;;;;3.30;3.10;;;;;;;42.17;15.86;100707.72;5002974;28;20033;-75
2022/06/05 08:02:19;;;;;;;4.85;3.55;;;;;;;41.76;15.96;100707.75;5015271;28;20018;-76
2022/06/05 08:04:46;;;;;;;3.47;3.17;;;;;;;41.63;16.54;100711.78;5015139;28;20026;-76
2022/06/05 08:07:15;;;;;;;3.97;3.63;;;;;;;40.75;16.65;100713.66;4981498;28;20041;-76
2022/06/05 08:09:41;;;;;;;3.85;3.47;;;;;;;41.05;17.64;100705.09;5015128;28;20018;-77
2022/06/05 08:12:12;;;;;;;3.15;2.95;;;;;;;41.30;16.82;100706.78;4981631;28;20034;-77
2022/06/05 08:14:41;;;;;;;3.67;3.38;;;;;;;40.92;17.87;100697.88;5014873;28;20030;-75
2022/06/05 08:17:08;;;;;;;3.65;3.35;;;;;;;40.89;17.80;100707.47;4997454;28;20474;-75
2022/06/05 08:19:36;;;;;;;4.05;3.75;;;;;;;40.73;18.39;100700.84;4997597;28;20117;-75
2022/06/05 08:22:03;;;;;;;3.65;3.35;;;;;;;40.86;18.47;100688.66;5014792;28;20021;-77
2022/06/05 08:24:30;;;;;;;3.60;3.30;;;;;;;41.11;17.89;100698.59;4997132;28;20030;-77
2022/06/05 08:26:55;;;;;;;3.65;3.35;;;;;;;41.00;17.87;100703.41;5014907;28;20026;-77
2022/06/05 08:29:21;;;;;;;3.95;3.65;;;;;;;40.60;19.16;100696.59;5014034;28;20033;-76
2022/06/05 08:31:47;;;;;;;3.30;3.08;;;;;;;40.66;18.35;100696.06;4997043;28;20475;-77
2022/06/05 08:34:13;;;;;;;2.65;2.45;;;;;;;40.26;17.61;100704.16;4988581;28;20408;-75
2022/06/05 08:36:39;;;;;;;2.90;2.70;;;;;;;39.96;17.66;100712.56;4964435;28;20014;-77
2022/06/05 08:41:58;;;;;;;3.70;3.40;;;;;;;39.20;18.54;100705.41;4973401;28;20042;-77
2022/06/05 08:44:33;;;;;;;3.20;3.00;;;;;;;39.14;19.14;100690.22;4973357;28;20230;-77
2022/06/05 08:47:01;;;;;;;4.60;4.10;;;;;;;38.94;20.03;100700.41;4973423;28;20033;-76
2022/06/05 08:49:40;;;;;;;5.40;4.18;;;;;;;38.82;20.72;100691.66;4973544;28;20027;-76
2022/06/05 08:52:18;;;;;;;3.85;3.55;;;;;;;38.43;19.97;100692.78;4972029;28;20031;-77
2022/06/05 08:55:06;;;;;;;3.83;3.53;;;;;;;38.57;19.98;100691.94;4973025;28;20468;-77
2022/06/05 08:57:44;;;;;;;3.95;3.65;;;;;;;38.14;19.91;100692.78;4971967;28;20381;-77
2022/06/05 09:00:19;;;;;;;3.83;3.53;;;;;;;37.90;20.27;100680.38;4973412;28;20307;-77
2022/06/05 09:02:50;;;;;;;3.78;3.50;;;;;;;38.14;19.66;100686.81;4971916;28;20026;-76
2022/06/05 09:05:23;;;;;;;4.50;3.63;;;;;;;38.10;20.10;100680.69;4972238;28;20034;-76
2022/06/05 09:07:56;;;;;;;4.40;3.85;;;;;;;38.01;20.58;100684.69;4973262;28;20041;-77
2022/06/05 09:10:24;;;;;;;5.13;4.22;;;;;;;38.22;20.15;100681.28;4973800;28;20034;-76
2022/06/05 09:13:14;;;;;;;3.67;3.40;;;;;;;38.05;19.87;100678.94;4975169;28;20066;-76
2022/06/05 09:15:42;;;;;;;3.83;3.53;;;;;;;37.79;21.04;100678.34;4946201;28;20038;-77
2022/06/05 09:18:15;;;;;;;3.67;3.40;;;;;;;37.34;21.93;100672.25;4974910;28;20042;-77
2022/06/05 09:20:56;;;;;;;3.50;3.20;;;;;;;37.01;21.48;100681.56;4975136;28;20019;-76
2022/06/05 09:23:34;;;;;;;;;;;;;;;36.66;22.77;100675.19;4974969;28;20029;-77
2022/06/05 09:26:08;;;;;;;6.88;4.30;;;;;;;36.46;22.66;100668.06;4973740;28;19906;-76
2022/06/05 09:28:40;;;;;;;4.25;3.95;;;;;;;36.25;23.09;100675.81;4973832;28;20026;-77
2022/06/05 09:31:37;;;;;;;3.58;3.28;;;;;;;35.90;21.41;100681.13;4974819;28;20050;-76
2022/06/05 09:34:14;;;;;;;3.72;3.42;;;;;;;35.15;22.52;100675.72;4981699;28;20556;-77
2022/06/05 09:36:42;;;;;;;4.00;3.60;;;;;;;35.33;23.15;100670.94;4996010;28;20112;-77
2022/06/05 09:39:27;;;;;;;4.10;3.80;;;;;;;35.18;24.92;100666.34;5028873;28;20017;-77
2022/06/05 09:42:08;;;;;;;4.88;4.47;;;;;;;35.20;23.18;100669.44;4996270;28;20127;-77
2022/06/05 09:44:47;;;;;;;4.78;3.95;;;;;;;35.06;24.03;100654.50;5013576;28;20066;-77
2022/06/05 09:47:25;;;;;;;4.30;3.90;;;;;;;34.89;25.06;100660.03;5013613;28;20053;-77
2022/06/05 09:49:58;;;;;;;3.13;2.92;;;;;;;34.55;25.21;100664.50;4979670;28;20057;-77
2022/06/05 09:52:27;;;;;;;3.75;3.45;;;;;;;34.16;25.68;100652.31;4995996;28;20032;-77
2022/06/05 09:55:08;;;;;;;4.50;4.13;;;;;;;33.58;27.33;100652.88;5013409;28;20030;-76
2022/06/05 09:58:25;;;;;;;4.88;4.47;;;;;;;32.82;27.47;100651.16;5013767;28;20037;-76
2022/06/05 10:00:53;;;;;;;5.15;4.35;;;;;;;32.83;27.02;100632.84;5002686;28;20057;-76
2022/06/05 10:03:40;;;;;;;4.47;3.97;;;;;;;32.79;28.23;100635.50;4995670;28;20084;-77
2022/06/05 10:06:14;;;;;;;4.10;3.60;;;;;;;32.50;28.51;100640.75;4995866;28;20018;-77
2022/06/05 10:08:42;;;;;;;4.13;3.83;;;;;;;32.23;27.96;100643.16;5013628;28;20450;-77
2022/06/05 10:11:23;;;;;;;3.58;3.28;;;;;;;32.04;28.85;100641.00;4995969;28;20515;-76
2022/06/05 10:14:21;;;;;;;2.78;2.60;;;;;;;31.60;27.06;100615.63;5013363;28;20025;-77
2022/06/05 10:17:17;;;;;;;2.53;2.33;;;;;;;31.31;27.57;100614.84;4969708;28;20144;-78
2022/06/05 10:20:00;;;;;;;3.42;3.13;;;;;;;30.60;28.92;100632.78;5013482;28;20026;-76
2022/06/05 10:22:47;;;;;;;2.90;2.70;;;;;;;30.48;29.02;100628.09;4995633;28;20109;-77
2022/06/05 10:25:33;;;;;;;2.88;2.67;;;;;;;30.34;28.64;100636.53;5013242;28;20082;-77
2022/06/05 10:28:17;;;;;;;3.60;3.30;;;;;;;29.82;30.05;100630.75;5013298;28;20030;-76
2022/06/05 10:31:06;;;;;;;5.88;3.47;;;;;;;29.81;30.09;100631.38;5014287;28;20049;-78
2022/06/05 10:34:10;;;;;;;5.25;3.63;;;;;;;29.81;30.06;100632.16;4997492;28;20030;-77
2022/06/05 10:37:12;;;;;;;3.38;2.90;;;;;;;29.64;29.16;100631.41;4974224;28;20054;-78
2022/06/05 10:39:41;;;;;;;3.55;3.25;;;;;;;29.21;29.72;100632.88;4974389;28;20189;-77
2022/06/05 10:42:12;;;;;;;4.20;3.80;;;;;;;29.21;30.86;100630.69;4974562;28;20034;-77
2022/06/05 10:44:51;;;;;;;3.03;2.80;;;;;;;29.13;29.78;100627.84;4975736;28;20477;-76
2022/06/05 10:47:26;;;;;;;3.60;3.30;;;;;;;28.89;30.53;100628.69;4976254;28;20104;-77
2022/06/05 10:50:08;;;;;;;3.90;3.47;;;;;;;28.20;32.39;100624.72;4976456;28;20031;-77
2022/06/05 10:52:43;;;;;;;3.53;3.22;;;;;;;28.26;34.59;100620.19;4976532;28;20080;-78
2022/06/05 10:55:17;;;;;;;4.40;3.55;;;;;;;27.89;32.79;100610.22;4992375;28;20038;-77
2022/06/05 10:58:06;;;;;;;3.25;2.95;;;;;;;28.03;32.41;100604.88;4977295;28;20121;-77
2022/06/05 11:00:44;;;;;;;3.67;3.17;;;;;;;28.07;33.14;100611.13;4977679;28;20600;-77
2022/06/05 11:03:47;;;;;;;3.45;3.17;;;;;;;27.54;33.03;100614.31;4976275;28;20031;-78
2022/06/05 11:07:08;;;;;;;3.50;3.20;;;;;;;27.44;34.01;100584.84;4977376;28;20030;-76
2022/06/05 11:09:57;;;;;;;3.25;3.05;;;;;;;27.67;34.18;100587.72;4898596;29;20492;-77
2022/06/05 11:15:39;;;;;;;4.15;3.60;;;;;;;27.46;33.94;100584.28;4976443;28;20066;-77
2022/06/05 11:18:22;;;;;;;3.63;3.33;;;;;;;26.90;33.18;100583.47;4969541;28;20046;-77
2022/06/05 11:20:53;;;;;;;4.38;3.67;;;;;;;26.79;34.37;100588.94;4976191;28;20137;-76
2022/06/05 11:23:26;;;;;;;4.57;3.88;;;;;;;26.86;34.92;100582.28;4976007;28;20078;-76
2022/06/05 11:26:24;;;;;;;4.07;3.78;;;;;;;26.98;35.65;100580.53;4975834;28;20026;-76
2022/06/05 11:28:56;;;;;;;4.53;4.13;;;;;;;26.89;35.03;100563.59;4956384;28;20046;-76
2022/06/05 11:31:24;;;;;;;4.63;4.30;;;;;;;26.98;34.83;100563.00;4975903;28;20054;-76
2022/06/05 11:34:33;;;;;;;4.10;3.63;;;;;;;27.01;33.79;100567.66;4979219;28;20035;-76
2022/06/05 11:37:31;;;;;;;3.40;3.08;;;;;;;26.90;32.64;100563.00;4937552;28;20037;-76
2022/06/05 11:40:10;;;;;;;3.60;3.30;;;;;;;26.58;35.56;100566.53;5016243;28;20097;-76
2022/06/05 11:43:04;;;;;;;3.78;3.47;;;;;;;26.69;34.55;100564.59;5015845;28;20030;-76
2022/06/05 11:45:48;;;;;;;3.05;2.75;;;;;;;26.89;33.38;100561.44;4998122;28;20447;-77
2022/06/05 11:48:22;;;;;;;3.35;2.95;;;;;;;27.10;33.89;100540.72;5015952;28;20033;-76
2022/06/05 11:50:59;;;;;;;4.28;3.28;;;;;;;26.94;33.81;100524.56;4998900;28;20021;-77
2022/06/05 11:53:47;;;;;;;3.33;3.03;;;;;;;27.11;32.83;100556.13;5015540;28;20037;-77
2022/06/05 11:56:29;;;;;;;3.83;2.72;;;;;;;27.14;32.14;100552.00;4997428;28;20126;-77
2022/06/05 11:59:03;;;;;;;3.83;2.83;;;;;;;27.06;32.36;100540.34;5014122;28;20360;-77
2022/06/05 12:01:32;;;;;;;3.30;3.10;;;;;;;27.05;32.62;100535.84;5015429;28;20030;-76
2022/06/05 12:04:36;;;;;;;4.18;3.17;;;;;;;26.96;32.58;100533.56;5030362;28;20367;-77